sensor_id;sensor_type;location;lat;lon;timestamp;P1;durP1;ratioP1;P2;durP2;ratioP2
21876;SDS011;11103;43.788;23.710;2023-03-14T00:01:12;32.40;;;20.07;;
21876;SDS011;11103;43.788;23.710;2023-03-14T00:03:40;32.23;;;19.80;;
21876;SDS011;11103;43.788;23.710;2023-03-14T00:06:06;31.67;;;19.93;;
21876;SDS011;11103;43.788;23.710;2023-03-14T00:08:32;34.20;;;19.47;;
21876;SDS011;11103;43.788;23.710;2023-03-14T00:10:58;30.83;;;19.23;;
21876;SDS011;11103;43.788;23.710;2023-03-14T00:13:28;29.00;;;18.30;;
21876;SDS011;11103;43.788;23.710;2023-03-14T00:15:53;33.00;;;19.97;;
21876;SDS011;11103;43.788;23.710;2023-03-14T00:18:19;28.67;;;18.07;;
21876;SDS011;11103;43.788;23.710;2023-03-14T00:20:44;35.17;;;18.97;;
21876;SDS011;11103;43.788;23.710;2023-03-14T00:23:10;30.60;;;18.40;;
21876;SDS011;11103;43.788;23.710;2023-03-14T00:25:35;29.57;;;18.47;;
21876;SDS011;11103;43.788;23.710;2023-03-14T00:28:01;30.03;;;19.17;;
21876;SDS011;11103;43.788;23.710;2023-03-14T00:30:26;29.23;;;19.03;;
21876;SDS011;11103;43.788;23.710;2023-03-14T00:32:51;29.90;;;16.57;;
21876;SDS011;11103;43.788;23.710;2023-03-14T00:35:17;34.77;;;20.13;;
21876;SDS011;11103;43.788;23.710;2023-03-14T00:37:42;33.57;;;20.40;;
21876;SDS011;11103;43.788;23.710;2023-03-14T00:40:08;38.77;;;21.33;;
21876;SDS011;11103;43.788;23.710;2023-03-14T00:42:34;36.77;;;22.37;;
21876;SDS011;11103;43.788;23.710;2023-03-14T00:45:00;36.70;;;22.00;;
21876;SDS011;11103;43.788;23.710;2023-03-14T00:47:25;32.37;;;20.33;;
21876;SDS011;11103;43.788;23.710;2023-03-14T00:49:50;34.33;;;20.80;;
21876;SDS011;11103;43.788;23.710;2023-03-14T00:52:16;30.73;;;20.27;;
21876;SDS011;11103;43.788;23.710;2023-03-14T00:54:41;37.20;;;21.57;;
21876;SDS011;11103;43.788;23.710;2023-03-14T00:57:07;35.53;;;21.40;;
21876;SDS011;11103;43.788;23.710;2023-03-14T00:59:32;40.87;;;23.43;;
21876;SDS011;11103;43.788;23.710;2023-03-14T01:01:58;38.50;;;23.80;;
21876;SDS011;11103;43.788;23.710;2023-03-14T01:04:23;45.27;;;25.43;;
21876;SDS011;11103;43.788;23.710;2023-03-14T01:06:49;43.67;;;26.50;;
21876;SDS011;11103;43.788;23.710;2023-03-14T01:09:14;46.77;;;26.17;;
21876;SDS011;11103;43.788;23.710;2023-03-14T01:11:42;43.50;;;26.60;;
21876;SDS011;11103;43.788;23.710;2023-03-14T01:14:11;42.33;;;26.23;;
21876;SDS011;11103;43.788;23.710;2023-03-14T01:16:37;42.30;;;25.93;;
21876;SDS011;11103;43.788;23.710;2023-03-14T01:19:02;45.53;;;25.43;;
21876;SDS011;11103;43.788;23.710;2023-03-14T01:21:29;39.93;;;25.37;;
21876;SDS011;11103;43.788;23.710;2023-03-14T01:23:57;40.23;;;24.50;;
21876;SDS011;11103;43.788;23.710;2023-03-14T01:26:26;40.07;;;25.40;;
21876;SDS011;11103;43.788;23.710;2023-03-14T01:28:54;40.90;;;24.70;;
21876;SDS011;11103;43.788;23.710;2023-03-14T01:31:20;36.10;;;22.13;;
21876;SDS011;11103;43.788;23.710;2023-03-14T01:33:46;37.90;;;23.87;;
21876;SDS011;11103;43.788;23.710;2023-03-14T01:36:12;39.50;;;24.73;;
21876;SDS011;11103;43.788;23.710;2023-03-14T01:38:38;38.63;;;23.10;;
21876;SDS011;11103;43.788;23.710;2023-03-14T01:41:05;42.33;;;24.30;;
21876;SDS011;11103;43.788;23.710;2023-03-14T01:43:31;38.13;;;23.63;;
21876;SDS011;11103;43.788;23.710;2023-03-14T01:48:33;34.43;;;23.10;;
21876;SDS011;11103;43.788;23.710;2023-03-14T01:51:21;37.37;;;23.13;;
21876;SDS011;11103;43.788;23.710;2023-03-14T01:54:16;40.17;;;22.60;;
21876;SDS011;11103;43.788;23.710;2023-03-14T01:56:47;34.90;;;21.63;;
21876;SDS011;11103;43.788;23.710;2023-03-14T01:59:20;36.53;;;22.93;;
21876;SDS011;11103;43.788;23.710;2023-03-14T02:01:46;36.03;;;23.53;;
21876;SDS011;11103;43.788;23.710;2023-03-14T02:04:14;41.13;;;23.10;;
21876;SDS011;11103;43.788;23.710;2023-03-14T02:06:45;37.67;;;22.37;;
21876;SDS011;11103;43.788;23.710;2023-03-14T02:09:14;36.37;;;22.87;;
21876;SDS011;11103;43.788;23.710;2023-03-14T02:11:41;35.20;;;21.77;;
21876;SDS011;11103;43.788;23.710;2023-03-14T02:14:07;38.37;;;22.43;;
21876;SDS011;11103;43.788;23.710;2023-03-14T02:16:40;40.00;;;24.67;;
21876;SDS011;11103;43.788;23.710;2023-03-14T02:19:05;34.27;;;23.17;;
21876;SDS011;11103;43.788;23.710;2023-03-14T02:24:32;39.27;;;23.87;;
21876;SDS011;11103;43.788;23.710;2023-03-14T02:32:40;44.90;;;25.10;;
21876;SDS011;11103;43.788;23.710;2023-03-14T02:35:11;42.73;;;23.60;;
21876;SDS011;11103;43.788;23.710;2023-03-14T02:40:28;40.40;;;23.60;;
21876;SDS011;11103;43.788;23.710;2023-03-14T02:42:53;41.27;;;24.20;;
21876;SDS011;11103;43.788;23.710;2023-03-14T02:47:49;41.50;;;25.73;;
21876;SDS011;11103;43.788;23.710;2023-03-14T02:50:20;44.40;;;26.13;;
21876;SDS011;11103;43.788;23.710;2023-03-14T02:52:49;39.73;;;24.57;;
21876;SDS011;11103;43.788;23.710;2023-03-14T02:55:19;41.73;;;25.17;;
21876;SDS011;11103;43.788;23.710;2023-03-14T02:57:48;38.43;;;24.33;;
21876;SDS011;11103;43.788;23.710;2023-03-14T03:00:14;41.70;;;24.00;;
21876;SDS011;11103;43.788;23.710;2023-03-14T03:02:40;41.40;;;25.53;;
21876;SDS011;11103;43.788;23.710;2023-03-14T03:05:05;43.37;;;24.23;;
21876;SDS011;11103;43.788;23.710;2023-03-14T03:07:31;47.33;;;25.87;;
21876;SDS011;11103;43.788;23.710;2023-03-14T03:09:56;47.13;;;28.33;;
21876;SDS011;11103;43.788;23.710;2023-03-14T03:12:21;51.30;;;27.13;;
21876;SDS011;11103;43.788;23.710;2023-03-14T03:14:47;44.63;;;26.83;;
21876;SDS011;11103;43.788;23.710;2023-03-14T03:17:12;46.77;;;26.13;;
21876;SDS011;11103;43.788;23.710;2023-03-14T03:19:38;45.10;;;27.23;;
21876;SDS011;11103;43.788;23.710;2023-03-14T03:22:03;45.53;;;27.93;;
21876;SDS011;11103;43.788;23.710;2023-03-14T03:24:28;45.87;;;25.97;;
21876;SDS011;11103;43.788;23.710;2023-03-14T03:26:54;41.20;;;25.10;;
21876;SDS011;11103;43.788;23.710;2023-03-14T03:29:19;43.83;;;26.47;;
21876;SDS011;11103;43.788;23.710;2023-03-14T03:31:45;44.30;;;27.20;;
21876;SDS011;11103;43.788;23.710;2023-03-14T03:34:10;42.30;;;24.00;;
21876;SDS011;11103;43.788;23.710;2023-03-14T03:36:37;39.33;;;24.00;;
21876;SDS011;11103;43.788;23.710;2023-03-14T03:39:03;40.07;;;24.50;;
21876;SDS011;11103;43.788;23.710;2023-03-14T03:41:29;41.90;;;24.67;;
21876;SDS011;11103;43.788;23.710;2023-03-14T03:43:54;39.53;;;23.93;;
21876;SDS011;11103;43.788;23.710;2023-03-14T03:46:20;39.23;;;22.53;;
21876;SDS011;11103;43.788;23.710;2023-03-14T03:48:46;37.90;;;23.27;;
21876;SDS011;11103;43.788;23.710;2023-03-14T03:51:12;38.07;;;22.23;;
21876;SDS011;11103;43.788;23.710;2023-03-14T03:53:39;39.17;;;23.80;;
21876;SDS011;11103;43.788;23.710;2023-03-14T03:56:04;34.93;;;22.77;;
21876;SDS011;11103;43.788;23.710;2023-03-14T03:58:30;36.97;;;23.40;;
21876;SDS011;11103;43.788;23.710;2023-03-14T04:00:56;57.00;;;27.53;;
21876;SDS011;11103;43.788;23.710;2023-03-14T04:03:21;40.50;;;23.00;;
21876;SDS011;11103;43.788;23.710;2023-03-14T04:05:57;42.77;;;23.03;;
21876;SDS011;11103;43.788;23.710;2023-03-14T04:08:23;49.20;;;25.10;;
21876;SDS011;11103;43.788;23.710;2023-03-14T04:10:48;59.90;;;27.90;;
21876;SDS011;11103;43.788;23.710;2023-03-14T04:13:14;41.27;;;23.77;;
21876;SDS011;11103;43.788;23.710;2023-03-14T04:15:39;182.80;;;54.87;;
21876;SDS011;11103;43.788;23.710;2023-03-14T04:18:04;175.60;;;50.37;;
21876;SDS011;11103;43.788;23.710;2023-03-14T04:20:30;81.87;;;32.87;;
21876;SDS011;11103;43.788;23.710;2023-03-14T04:22:55;72.77;;;32.90;;
21876;SDS011;11103;43.788;23.710;2023-03-14T04:25:21;102.73;;;38.57;;
21876;SDS011;11103;43.788;23.710;2023-03-14T04:27:46;128.70;;;45.20;;
21876;SDS011;11103;43.788;23.710;2023-03-14T04:30:12;118.50;;;40.97;;
21876;SDS011;11103;43.788;23.710;2023-03-14T04:32:38;100.80;;;38.50;;
21876;SDS011;11103;43.788;23.710;2023-03-14T04:35:04;61.37;;;29.23;;
21876;SDS011;11103;43.788;23.710;2023-03-14T04:37:30;341.23;;;103.87;;
21876;SDS011;11103;43.788;23.710;2023-03-14T04:39:55;88.90;;;38.43;;
21876;SDS011;11103;43.788;23.710;2023-03-14T04:42:21;57.93;;;29.60;;
21876;SDS011;11103;43.788;23.710;2023-03-14T04:44:46;46.33;;;26.10;;
21876;SDS011;11103;43.788;23.710;2023-03-14T04:47:14;40.33;;;24.50;;
21876;SDS011;11103;43.788;23.710;2023-03-14T04:49:39;38.87;;;26.03;;
21876;SDS011;11103;43.788;23.710;2023-03-14T04:52:05;42.10;;;24.57;;
21876;SDS011;11103;43.788;23.710;2023-03-14T04:54:30;42.87;;;25.87;;
21876;SDS011;11103;43.788;23.710;2023-03-14T04:56:55;75.10;;;38.13;;
21876;SDS011;11103;43.788;23.710;2023-03-14T04:59:21;58.07;;;32.37;;
21876;SDS011;11103;43.788;23.710;2023-03-14T05:01:46;47.87;;;27.73;;
21876;SDS011;11103;43.788;23.710;2023-03-14T05:04:13;55.40;;;29.17;;
21876;SDS011;11103;43.788;23.710;2023-03-14T05:06:39;80.20;;;40.23;;
21876;SDS011;11103;43.788;23.710;2023-03-14T05:09:04;60.97;;;32.93;;
21876;SDS011;11103;43.788;23.710;2023-03-14T05:11:30;47.23;;;27.37;;
21876;SDS011;11103;43.788;23.710;2023-03-14T05:13:55;54.27;;;31.43;;
21876;SDS011;11103;43.788;23.710;2023-03-14T05:16:21;51.67;;;31.00;;
21876;SDS011;11103;43.788;23.710;2023-03-14T05:18:46;68.43;;;38.57;;
21876;SDS011;11103;43.788;23.710;2023-03-14T05:21:11;69.03;;;41.23;;
21876;SDS011;11103;43.788;23.710;2023-03-14T05:23:37;57.53;;;34.60;;
21876;SDS011;11103;43.788;23.710;2023-03-14T05:26:02;62.80;;;32.33;;
21876;SDS011;11103;43.788;23.710;2023-03-14T05:28:28;56.27;;;30.50;;
21876;SDS011;11103;43.788;23.710;2023-03-14T05:30:53;69.97;;;32.37;;
21876;SDS011;11103;43.788;23.710;2023-03-14T05:33:18;60.87;;;30.57;;
21876;SDS011;11103;43.788;23.710;2023-03-14T05:35:44;61.43;;;31.17;;
21876;SDS011;11103;43.788;23.710;2023-03-14T05:38:09;50.60;;;28.50;;
21876;SDS011;11103;43.788;23.710;2023-03-14T05:40:35;41.67;;;26.83;;
21876;SDS011;11103;43.788;23.710;2023-03-14T05:43:00;55.03;;;25.77;;
21876;SDS011;11103;43.788;23.710;2023-03-14T05:45:25;40.47;;;25.37;;
21876;SDS011;11103;43.788;23.710;2023-03-14T05:47:51;44.10;;;25.67;;
21876;SDS011;11103;43.788;23.710;2023-03-14T05:50:17;34.33;;;22.67;;
21876;SDS011;11103;43.788;23.710;2023-03-14T05:52:42;36.47;;;23.57;;
21876;SDS011;11103;43.788;23.710;2023-03-14T05:55:08;36.87;;;24.80;;
21876;SDS011;11103;43.788;23.710;2023-03-14T05:57:33;36.80;;;23.87;;
21876;SDS011;11103;43.788;23.710;2023-03-14T05:59:59;38.90;;;22.87;;
21876;SDS011;11103;43.788;23.710;2023-03-14T06:02:24;36.73;;;22.33;;
21876;SDS011;11103;43.788;23.710;2023-03-14T06:04:50;33.50;;;20.87;;
21876;SDS011;11103;43.788;23.710;2023-03-14T06:07:15;30.00;;;20.70;;
21876;SDS011;11103;43.788;23.710;2023-03-14T06:09:41;30.17;;;19.67;;
21876;SDS011;11103;43.788;23.710;2023-03-14T06:12:06;35.17;;;20.53;;
21876;SDS011;11103;43.788;23.710;2023-03-14T06:14:31;34.17;;;19.70;;
21876;SDS011;11103;43.788;23.710;2023-03-14T06:16:57;32.77;;;20.10;;
21876;SDS011;11103;43.788;23.710;2023-03-14T06:19:24;35.00;;;20.40;;
21876;SDS011;11103;43.788;23.710;2023-03-14T06:21:50;29.40;;;18.53;;
21876;SDS011;11103;43.788;23.710;2023-03-14T06:24:15;32.23;;;19.13;;
21876;SDS011;11103;43.788;23.710;2023-03-14T06:26:41;28.60;;;19.90;;
21876;SDS011;11103;43.788;23.710;2023-03-14T06:29:06;32.70;;;20.10;;
21876;SDS011;11103;43.788;23.710;2023-03-14T06:31:32;29.80;;;19.67;;
21876;SDS011;11103;43.788;23.710;2023-03-14T06:33:58;29.87;;;19.50;;
21876;SDS011;11103;43.788;23.710;2023-03-14T06:36:24;29.47;;;19.33;;
21876;SDS011;11103;43.788;23.710;2023-03-14T06:38:50;29.97;;;20.30;;
21876;SDS011;11103;43.788;23.710;2023-03-14T06:41:15;30.10;;;20.03;;
21876;SDS011;11103;43.788;23.710;2023-03-14T06:43:41;30.67;;;20.07;;
21876;SDS011;11103;43.788;23.710;2023-03-14T06:46:06;30.90;;;19.93;;
21876;SDS011;11103;43.788;23.710;2023-03-14T06:48:31;31.27;;;19.00;;
21876;SDS011;11103;43.788;23.710;2023-03-14T06:50:57;30.63;;;19.50;;
21876;SDS011;11103;43.788;23.710;2023-03-14T06:53:22;28.87;;;19.37;;
21876;SDS011;11103;43.788;23.710;2023-03-14T06:55:48;33.07;;;20.13;;
21876;SDS011;11103;43.788;23.710;2023-03-14T06:58:13;30.93;;;20.60;;
21876;SDS011;11103;43.788;23.710;2023-03-14T07:00:39;26.17;;;18.80;;
21876;SDS011;11103;43.788;23.710;2023-03-14T07:03:04;28.47;;;19.47;;
21876;SDS011;11103;43.788;23.710;2023-03-14T07:05:30;30.53;;;19.97;;
21876;SDS011;11103;43.788;23.710;2023-03-14T07:07:55;29.07;;;19.43;;
21876;SDS011;11103;43.788;23.710;2023-03-14T07:10:21;34.87;;;21.37;;
21876;SDS011;11103;43.788;23.710;2023-03-14T07:12:46;32.17;;;20.50;;
21876;SDS011;11103;43.788;23.710;2023-03-14T07:15:12;32.23;;;20.53;;
21876;SDS011;11103;43.788;23.710;2023-03-14T07:17:37;33.57;;;19.77;;
21876;SDS011;11103;43.788;23.710;2023-03-14T07:20:03;29.97;;;19.07;;
21876;SDS011;11103;43.788;23.710;2023-03-14T07:22:29;33.50;;;20.73;;
21876;SDS011;11103;43.788;23.710;2023-03-14T07:24:55;32.20;;;20.33;;
21876;SDS011;11103;43.788;23.710;2023-03-14T07:27:21;31.67;;;19.80;;
21876;SDS011;11103;43.788;23.710;2023-03-14T07:29:46;31.17;;;20.63;;
21876;SDS011;11103;43.788;23.710;2023-03-14T07:32:12;34.13;;;19.50;;
21876;SDS011;11103;43.788;23.710;2023-03-14T07:34:40;32.50;;;20.53;;
21876;SDS011;11103;43.788;23.710;2023-03-14T07:37:08;30.43;;;19.93;;
21876;SDS011;11103;43.788;23.710;2023-03-14T07:39:33;32.47;;;18.37;;
21876;SDS011;11103;43.788;23.710;2023-03-14T07:41:59;33.23;;;19.60;;
21876;SDS011;11103;43.788;23.710;2023-03-14T07:44:25;30.47;;;19.87;;
21876;SDS011;11103;43.788;23.710;2023-03-14T07:46:50;33.03;;;20.17;;
21876;SDS011;11103;43.788;23.710;2023-03-14T07:49:16;29.80;;;20.13;;
21876;SDS011;11103;43.788;23.710;2023-03-14T07:51:41;29.23;;;19.43;;
21876;SDS011;11103;43.788;23.710;2023-03-14T07:54:08;29.90;;;19.00;;
21876;SDS011;11103;43.788;23.710;2023-03-14T07:56:34;27.23;;;17.53;;
21876;SDS011;11103;43.788;23.710;2023-03-14T07:59:00;25.67;;;16.80;;
21876;SDS011;11103;43.788;23.710;2023-03-14T08:01:26;31.40;;;17.10;;
21876;SDS011;11103;43.788;23.710;2023-03-14T08:03:51;23.53;;;15.97;;
21876;SDS011;11103;43.788;23.710;2023-03-14T08:06:16;28.57;;;15.90;;
21876;SDS011;11103;43.788;23.710;2023-03-14T08:08:42;22.73;;;16.80;;
21876;SDS011;11103;43.788;23.710;2023-03-14T08:11:07;23.77;;;16.13;;
21876;SDS011;11103;43.788;23.710;2023-03-14T08:13:36;23.50;;;15.23;;
21876;SDS011;11103;43.788;23.710;2023-03-14T08:16:02;27.17;;;16.80;;
21876;SDS011;11103;43.788;23.710;2023-03-14T08:18:28;48.57;;;17.73;;
21876;SDS011;11103;43.788;23.710;2023-03-14T08:20:54;23.23;;;16.00;;
21876;SDS011;11103;43.788;23.710;2023-03-14T08:23:19;31.47;;;15.83;;
21876;SDS011;11103;43.788;23.710;2023-03-14T08:25:45;25.40;;;16.43;;
21876;SDS011;11103;43.788;23.710;2023-03-14T08:28:13;23.27;;;16.00;;
21876;SDS011;11103;43.788;23.710;2023-03-14T08:30:38;25.73;;;16.27;;
21876;SDS011;11103;43.788;23.710;2023-03-14T08:33:03;29.53;;;17.63;;
21876;SDS011;11103;43.788;23.710;2023-03-14T08:35:29;22.40;;;14.73;;
21876;SDS011;11103;43.788;23.710;2023-03-14T08:37:54;23.70;;;16.43;;
21876;SDS011;11103;43.788;23.710;2023-03-14T08:40:20;25.50;;;16.60;;
21876;SDS011;11103;43.788;23.710;2023-03-14T08:42:46;25.67;;;16.73;;
21876;SDS011;11103;43.788;23.710;2023-03-14T08:45:12;27.43;;;16.37;;
21876;SDS011;11103;43.788;23.710;2023-03-14T08:47:39;26.80;;;17.07;;
21876;SDS011;11103;43.788;23.710;2023-03-14T08:50:05;31.07;;;20.07;;
21876;SDS011;11103;43.788;23.710;2023-03-14T08:52:31;27.40;;;17.70;;
21876;SDS011;11103;43.788;23.710;2023-03-14T08:54:57;20.33;;;13.73;;
21876;SDS011;11103;43.788;23.710;2023-03-14T08:57:23;23.87;;;16.00;;
21876;SDS011;11103;43.788;23.710;2023-03-14T08:59:52;21.77;;;15.10;;
21876;SDS011;11103;43.788;23.710;2023-03-14T09:02:19;21.60;;;15.10;;
21876;SDS011;11103;43.788;23.710;2023-03-14T09:04:45;21.53;;;13.13;;
21876;SDS011;11103;43.788;23.710;2023-03-14T09:07:10;23.07;;;14.13;;
21876;SDS011;11103;43.788;23.710;2023-03-14T09:09:36;21.70;;;14.10;;
21876;SDS011;11103;43.788;23.710;2023-03-14T09:12:01;23.17;;;14.70;;
21876;SDS011;11103;43.788;23.710;2023-03-14T09:14:27;23.63;;;14.73;;
21876;SDS011;11103;43.788;23.710;2023-03-14T09:16:52;20.97;;;14.73;;
21876;SDS011;11103;43.788;23.710;2023-03-14T09:19:18;20.00;;;12.93;;
21876;SDS011;11103;43.788;23.710;2023-03-14T09:21:43;18.50;;;13.47;;
21876;SDS011;11103;43.788;23.710;2023-03-14T09:24:09;16.27;;;12.07;;
21876;SDS011;11103;43.788;23.710;2023-03-14T09:26:34;18.03;;;12.87;;
21876;SDS011;11103;43.788;23.710;2023-03-14T09:28:59;15.20;;;11.63;;
21876;SDS011;11103;43.788;23.710;2023-03-14T09:31:25;14.90;;;11.37;;
21876;SDS011;11103;43.788;23.710;2023-03-14T09:33:50;20.90;;;11.90;;
21876;SDS011;11103;43.788;23.710;2023-03-14T09:36:16;17.77;;;11.73;;
21876;SDS011;11103;43.788;23.710;2023-03-14T09:38:41;18.23;;;12.13;;
21876;SDS011;11103;43.788;23.710;2023-03-14T09:41:15;19.93;;;12.97;;
21876;SDS011;11103;43.788;23.710;2023-03-14T09:43:43;17.13;;;13.00;;
21876;SDS011;11103;43.788;23.710;2023-03-14T09:46:11;17.47;;;12.43;;
21876;SDS011;11103;43.788;23.710;2023-03-14T09:48:37;17.97;;;11.30;;
21876;SDS011;11103;43.788;23.710;2023-03-14T09:51:05;21.50;;;14.30;;
21876;SDS011;11103;43.788;23.710;2023-03-14T09:56:12;20.33;;;14.80;;
21876;SDS011;11103;43.788;23.710;2023-03-14T09:58:43;17.90;;;12.90;;
21876;SDS011;11103;43.788;23.710;2023-03-14T10:01:13;16.60;;;11.30;;
21876;SDS011;11103;43.788;23.710;2023-03-14T10:03:41;17.10;;;10.47;;
21876;SDS011;11103;43.788;23.710;2023-03-14T10:06:13;14.93;;;10.00;;
21876;SDS011;11103;43.788;23.710;2023-03-14T10:08:43;16.70;;;11.70;;
21876;SDS011;11103;43.788;23.710;2023-03-14T10:11:14;17.10;;;11.40;;
21876;SDS011;11103;43.788;23.710;2023-03-14T10:16:32;18.80;;;11.70;;
21876;SDS011;11103;43.788;23.710;2023-03-14T10:19:03;22.20;;;13.00;;
21876;SDS011;11103;43.788;23.710;2023-03-14T10:21:35;14.53;;;10.23;;
21876;SDS011;11103;43.788;23.710;2023-03-14T10:24:18;12.93;;;9.20;;
21876;SDS011;11103;43.788;23.710;2023-03-14T10:26:53;11.90;;;9.30;;
21876;SDS011;11103;43.788;23.710;2023-03-14T10:29:23;13.63;;;8.60;;
21876;SDS011;11103;43.788;23.710;2023-03-14T10:34:40;12.33;;;9.13;;
21876;SDS011;11103;43.788;23.710;2023-03-14T10:37:06;14.87;;;9.47;;
21876;SDS011;11103;43.788;23.710;2023-03-14T10:39:47;10.87;;;8.50;;
21876;SDS011;11103;43.788;23.710;2023-03-14T10:42:21;13.17;;;9.37;;
21876;SDS011;11103;43.788;23.710;2023-03-14T10:44:55;15.53;;;8.10;;
21876;SDS011;11103;43.788;23.710;2023-03-14T10:47:23;11.07;;;7.87;;
21876;SDS011;11103;43.788;23.710;2023-03-14T10:49:51;12.03;;;7.93;;
21876;SDS011;11103;43.788;23.710;2023-03-14T10:54:46;10.37;;;6.30;;
21876;SDS011;11103;43.788;23.710;2023-03-14T10:57:12;9.97;;;6.80;;
21876;SDS011;11103;43.788;23.710;2023-03-14T10:59:39;8.67;;;6.50;;
21876;SDS011;11103;43.788;23.710;2023-03-14T11:07:52;12.50;;;7.27;;
21876;SDS011;11103;43.788;23.710;2023-03-14T11:19:03;9.23;;;6.90;;
21876;SDS011;11103;43.788;23.710;2023-03-14T11:24:56;8.83;;;7.30;;
21876;SDS011;11103;43.788;23.710;2023-03-14T11:28:00;8.67;;;6.63;;
21876;SDS011;11103;43.788;23.710;2023-03-14T11:30:34;11.07;;;7.30;;
21876;SDS011;11103;43.788;23.710;2023-03-14T11:33:14;10.90;;;7.00;;
21876;SDS011;11103;43.788;23.710;2023-03-14T11:35:47;7.47;;;6.33;;
21876;SDS011;11103;43.788;23.710;2023-03-14T11:38:27;8.80;;;6.87;;
21876;SDS011;11103;43.788;23.710;2023-03-14T11:40:56;8.93;;;6.37;;
21876;SDS011;11103;43.788;23.710;2023-03-14T11:45:54;7.60;;;5.13;;
21876;SDS011;11103;43.788;23.710;2023-03-14T11:51:34;7.13;;;5.67;;
21876;SDS011;11103;43.788;23.710;2023-03-14T11:54:11;11.70;;;6.10;;
21876;SDS011;11103;43.788;23.710;2023-03-14T11:59:24;7.47;;;5.37;;
21876;SDS011;11103;43.788;23.710;2023-03-14T12:07:02;8.33;;;5.60;;
21876;SDS011;11103;43.788;23.710;2023-03-14T12:09:34;9.33;;;5.40;;
21876;SDS011;11103;43.788;23.710;2023-03-14T12:12:01;9.87;;;5.63;;
21876;SDS011;11103;43.788;23.710;2023-03-14T12:14:29;8.90;;;5.23;;
21876;SDS011;11103;43.788;23.710;2023-03-14T12:17:07;8.03;;;5.00;;
21876;SDS011;11103;43.788;23.710;2023-03-14T12:19:38;9.00;;;4.97;;
21876;SDS011;11103;43.788;23.710;2023-03-14T12:22:18;9.30;;;4.50;;
21876;SDS011;11103;43.788;23.710;2023-03-14T12:24:51;6.83;;;5.00;;
21876;SDS011;11103;43.788;23.710;2023-03-14T12:30:22;5.87;;;4.83;;
21876;SDS011;11103;43.788;23.710;2023-03-14T12:43:45;5.97;;;4.70;;
21876;SDS011;11103;43.788;23.710;2023-03-14T12:48:46;8.30;;;5.80;;
21876;SDS011;11103;43.788;23.710;2023-03-14T12:53:54;10.27;;;5.20;;
21876;SDS011;11103;43.788;23.710;2023-03-14T12:59:52;8.73;;;5.70;;
21876;SDS011;11103;43.788;23.710;2023-03-14T13:02:38;7.70;;;4.90;;
21876;SDS011;11103;43.788;23.710;2023-03-14T13:15:34;8.90;;;5.13;;
21876;SDS011;11103;43.788;23.710;2023-03-14T13:18:10;6.97;;;4.97;;
21876;SDS011;11103;43.788;23.710;2023-03-14T13:20:37;11.83;;;4.90;;
21876;SDS011;11103;43.788;23.710;2023-03-14T13:23:18;7.53;;;4.67;;
21876;SDS011;11103;43.788;23.710;2023-03-14T13:25:45;7.57;;;4.90;;
21876;SDS011;11103;43.788;23.710;2023-03-14T13:28:11;6.23;;;4.70;;
21876;SDS011;11103;43.788;23.710;2023-03-14T13:30:39;13.53;;;4.50;;
21876;SDS011;11103;43.788;23.710;2023-03-14T13:33:06;7.30;;;4.77;;
21876;SDS011;11103;43.788;23.710;2023-03-14T13:35:44;6.30;;;4.37;;
21876;SDS011;11103;43.788;23.710;2023-03-14T13:38:15;8.53;;;3.93;;
21876;SDS011;11103;43.788;23.710;2023-03-14T13:40:46;5.30;;;3.77;;
21876;SDS011;11103;43.788;23.710;2023-03-14T13:43:18;4.90;;;3.80;;
21876;SDS011;11103;43.788;23.710;2023-03-14T13:46:15;6.13;;;4.30;;
21876;SDS011;11103;43.788;23.710;2023-03-14T13:49:03;5.17;;;4.03;;
21876;SDS011;11103;43.788;23.710;2023-03-14T13:51:30;4.60;;;4.03;;
21876;SDS011;11103;43.788;23.710;2023-03-14T13:54:00;11.23;;;4.70;;
21876;SDS011;11103;43.788;23.710;2023-03-14T13:56:29;18.20;;;5.07;;
21876;SDS011;11103;43.788;23.710;2023-03-14T13:58:56;9.93;;;4.40;;
21876;SDS011;11103;43.788;23.710;2023-03-14T14:01:23;12.13;;;4.40;;
21876;SDS011;11103;43.788;23.710;2023-03-14T14:03:54;5.27;;;3.50;;
21876;SDS011;11103;43.788;23.710;2023-03-14T14:06:23;6.13;;;4.07;;
21876;SDS011;11103;43.788;23.710;2023-03-14T14:08:50;6.20;;;4.33;;
21876;SDS011;11103;43.788;23.710;2023-03-14T14:11:21;12.30;;;4.47;;
21876;SDS011;11103;43.788;23.710;2023-03-14T14:13:56;7.13;;;3.43;;
21876;SDS011;11103;43.788;23.710;2023-03-14T14:16:24;22.07;;;4.90;;
21876;SDS011;11103;43.788;23.710;2023-03-14T14:18:51;7.20;;;3.73;;
21876;SDS011;11103;43.788;23.710;2023-03-14T14:21:19;6.43;;;4.17;;
21876;SDS011;11103;43.788;23.710;2023-03-14T14:23:45;4.90;;;3.63;;
21876;SDS011;11103;43.788;23.710;2023-03-14T14:26:14;6.73;;;3.93;;
21876;SDS011;11103;43.788;23.710;2023-03-14T14:28:42;12.47;;;4.37;;
21876;SDS011;11103;43.788;23.710;2023-03-14T14:36:23;12.13;;;3.97;;
21876;SDS011;11103;43.788;23.710;2023-03-14T14:38:50;9.97;;;4.20;;
21876;SDS011;11103;43.788;23.710;2023-03-14T14:41:22;11.13;;;4.60;;
21876;SDS011;11103;43.788;23.710;2023-03-14T14:43:52;9.53;;;4.00;;
21876;SDS011;11103;43.788;23.710;2023-03-14T14:46:18;6.17;;;3.90;;
21876;SDS011;11103;43.788;23.710;2023-03-14T14:48:44;8.37;;;4.20;;
21876;SDS011;11103;43.788;23.710;2023-03-14T14:51:21;7.87;;;4.40;;
21876;SDS011;11103;43.788;23.710;2023-03-14T14:53:49;9.50;;;4.13;;
21876;SDS011;11103;43.788;23.710;2023-03-14T14:56:19;6.00;;;3.47;;
21876;SDS011;11103;43.788;23.710;2023-03-14T14:58:49;9.20;;;3.93;;
21876;SDS011;11103;43.788;23.710;2023-03-14T15:01:16;5.53;;;3.60;;
21876;SDS011;11103;43.788;23.710;2023-03-14T15:03:44;7.77;;;3.17;;
21876;SDS011;11103;43.788;23.710;2023-03-14T15:06:13;7.00;;;3.83;;
21876;SDS011;11103;43.788;23.710;2023-03-14T15:08:40;8.03;;;3.50;;
21876;SDS011;11103;43.788;23.710;2023-03-14T15:11:15;7.57;;;3.80;;
21876;SDS011;11103;43.788;23.710;2023-03-14T15:13:45;5.43;;;3.70;;
21876;SDS011;11103;43.788;23.710;2023-03-14T15:16:15;6.47;;;3.70;;
21876;SDS011;11103;43.788;23.710;2023-03-14T15:18:43;38.40;;;5.20;;
21876;SDS011;11103;43.788;23.710;2023-03-14T15:21:10;38.90;;;5.60;;
21876;SDS011;11103;43.788;23.710;2023-03-14T15:23:36;9.10;;;5.17;;
21876;SDS011;11103;43.788;23.710;2023-03-14T15:26:01;7.10;;;3.90;;
21876;SDS011;11103;43.788;23.710;2023-03-14T15:28:28;54.93;;;28.93;;
21876;SDS011;11103;43.788;23.710;2023-03-14T15:30:55;40.30;;;19.07;;
21876;SDS011;11103;43.788;23.710;2023-03-14T15:33:22;37.80;;;20.80;;
21876;SDS011;11103;43.788;23.710;2023-03-14T15:35:49;22.23;;;8.40;;
21876;SDS011;11103;43.788;23.710;2023-03-14T15:38:16;29.93;;;16.00;;
21876;SDS011;11103;43.788;23.710;2023-03-14T15:40:45;9.20;;;3.93;;
21876;SDS011;11103;43.788;23.710;2023-03-14T15:43:11;7.93;;;3.97;;
21876;SDS011;11103;43.788;23.710;2023-03-14T15:45:37;37.97;;;23.03;;
21876;SDS011;11103;43.788;23.710;2023-03-14T15:48:03;25.47;;;6.60;;
21876;SDS011;11103;43.788;23.710;2023-03-14T15:50:29;21.23;;;12.97;;
21876;SDS011;11103;43.788;23.710;2023-03-14T15:52:54;36.93;;;6.40;;